createdAt,value
2022-12-08T00:04:31.064Z,2.7
2022-12-08T00:14:32.945Z,2.7
2022-12-08T00:24:35.586Z,2.8
2022-12-08T00:34:38.046Z,2.8
2022-12-08T00:44:40.548Z,2.7
2022-12-08T00:54:42.691Z,2.7
2022-12-08T01:04:44.957Z,2.7
2022-12-08T01:14:46.900Z,2.8
2022-12-08T01:24:49.123Z,2.9
2022-12-08T01:34:51.676Z,2.9
2022-12-08T01:44:53.350Z,3
2022-12-08T01:54:55.474Z,3
2022-12-08T02:04:57.695Z,3
2022-12-08T02:15:03.494Z,2.9
2022-12-08T02:25:01.843Z,2.9
2022-12-08T02:45:05.565Z,2.9
2022-12-08T02:55:07.515Z,2.9
2022-12-08T03:05:09.343Z,2.8
2022-12-08T03:15:11.223Z,2.8
2022-12-08T03:25:13.076Z,2.9
2022-12-08T03:35:15.144Z,2.9
2022-12-08T03:45:17.019Z,2.9
2022-12-08T03:55:18.946Z,2.9
2022-12-08T04:05:20.803Z,2.9
2022-12-08T04:15:23.197Z,2.9
2022-12-08T04:25:25.443Z,2.9
2022-12-08T04:35:27.229Z,2.9
2022-12-08T04:45:29.214Z,2.9
2022-12-08T04:55:30.942Z,2.8
2022-12-08T05:05:32.613Z,2.8
2022-12-08T05:15:35.258Z,2.8
2022-12-08T05:35:40.148Z,2.8
2022-12-08T05:55:43.998Z,2.8
2022-12-08T06:05:46.089Z,2.8
2022-12-08T06:15:48.010Z,2.7
2022-12-08T06:25:50.582Z,2.8
2022-12-08T06:35:53.159Z,2.7
2022-12-08T06:55:59.525Z,2.5
2022-12-08T07:06:03.674Z,2.4
2022-12-08T07:16:02.214Z,2.3
2022-12-08T07:26:04.104Z,2.3
2022-12-08T07:36:05.817Z,2.4
2022-12-08T07:46:08.441Z,2.3
2022-12-08T07:56:11.003Z,2.4
2022-12-08T08:06:13.551Z,2.6
2022-12-08T08:16:15.405Z,2.6
2022-12-08T08:26:17.260Z,2.6
2022-12-08T08:36:19.848Z,2.6
2022-12-08T08:46:22.441Z,2.5
2022-12-08T08:56:24.595Z,2.6
2022-12-08T09:06:26.435Z,2.6
2022-12-08T09:16:28.647Z,2.7
2022-12-08T09:26:30.672Z,2.8
2022-12-08T09:36:32.597Z,2.8
2022-12-08T09:46:35.122Z,2.6
2022-12-08T09:56:37.738Z,2.7
2022-12-08T10:06:39.627Z,2.6
2022-12-08T10:16:41.789Z,2.6
2022-12-08T10:26:43.724Z,2.6
2022-12-08T10:36:45.660Z,2.5
2022-12-08T10:46:47.991Z,2.7
2022-12-08T10:56:50.090Z,2.7
2022-12-08T11:16:54.103Z,2.6
2022-12-08T11:26:55.872Z,2.6
2022-12-08T11:36:57.629Z,2.8
2022-12-08T11:46:59.842Z,2.8
2022-12-08T11:57:02.359Z,2.8
2022-12-08T12:07:04.795Z,2.7
2022-12-08T12:17:06.621Z,2.8
2022-12-08T12:27:09.035Z,2.7
2022-12-08T12:37:10.863Z,2.7
2022-12-08T12:47:13.052Z,2.8
2022-12-08T12:57:15.109Z,2.8
2022-12-08T13:07:17.479Z,2.8
2022-12-08T13:17:20.004Z,2.8
2022-12-08T13:27:21.652Z,2.9
2022-12-08T13:37:23.425Z,2.8
2022-12-08T13:47:33.648Z,2.8
2022-12-08T13:57:27.881Z,2.8
2022-12-08T14:07:30.434Z,2.7
2022-12-08T14:17:32.267Z,2.7
2022-12-08T14:27:34.812Z,2.8
2022-12-08T14:37:37.262Z,2.8
2022-12-08T14:47:39.224Z,2.8
2022-12-08T14:57:41.449Z,2.7
2022-12-08T15:07:43.890Z,2.6
2022-12-08T15:17:46.238Z,2.6
2022-12-08T15:27:50.377Z,2.5
2022-12-08T15:37:50.378Z,2.5
2022-12-08T15:47:52.737Z,2.4
2022-12-08T16:07:57.746Z,2.4
2022-12-08T16:17:59.309Z,2.4
2022-12-08T16:28:08.685Z,2.4
2022-12-08T16:38:02.879Z,2.4
2022-12-08T16:58:07.135Z,2.4
2022-12-08T17:08:09.202Z,2.4
2022-12-08T17:18:11.402Z,2.4
2022-12-08T17:28:22.416Z,2.3
2022-12-08T17:38:15.458Z,2.4
2022-12-08T17:48:18.012Z,2.2
2022-12-08T17:58:19.944Z,2.1
2022-12-08T18:08:21.826Z,2.2
2022-12-08T18:18:24.277Z,2.1
2022-12-08T18:28:26.562Z,2.2
2022-12-08T18:38:29.077Z,2.1
2022-12-08T18:58:33.144Z,2.2
2022-12-08T19:08:35.590Z,2.1
2022-12-08T19:18:37.662Z,2.1
2022-12-08T19:28:40.296Z,2.1
2022-12-08T19:48:43.776Z,2.1
2022-12-08T19:58:45.825Z,2
2022-12-08T20:08:50.509Z,1.9
2022-12-08T20:18:49.253Z,1.7
2022-12-08T20:28:51.902Z,1.6
2022-12-08T20:38:53.692Z,1.5
2022-12-08T20:58:57.889Z,1.2
2022-12-08T21:09:00.186Z,1.3
2022-12-08T21:19:02.378Z,1.4
2022-12-08T21:29:12.351Z,1.4
2022-12-08T21:39:14.029Z,1.4
2022-12-08T21:59:18.558Z,0.9
2022-12-08T22:09:21.106Z,0.9
2022-12-08T22:19:23.477Z,0.7
2022-12-08T22:59:31.413Z,1.1
2022-12-08T23:19:36.316Z,0.8
2022-12-08T23:29:38.386Z,0.6
2022-12-08T23:59:44.678Z,0.5
